createdAt,value
2019-04-21T00:02:03.410Z,12.90
2019-04-21T00:04:42.977Z,12.90
2019-04-21T00:07:22.161Z,12.80
2019-04-21T00:09:52.370Z,12.80
2019-04-21T00:12:22.775Z,12.80
2019-04-21T00:14:47.152Z,12.80
2019-04-21T00:17:09.515Z,12.90
2019-04-21T00:19:39.538Z,12.90
2019-04-21T00:22:24.773Z,12.90
2019-04-21T00:24:56.171Z,12.90
2019-04-21T00:27:24.443Z,12.90
2019-04-21T00:29:59.330Z,12.90
2019-04-21T00:32:25.655Z,12.80
2019-04-21T00:34:50.434Z,12.80
2019-04-21T00:37:20.742Z,12.70
2019-04-21T00:40:03.659Z,12.60
2019-04-21T00:42:29.294Z,12.60
2019-04-21T00:45:00.837Z,12.50
2019-04-21T00:47:34.752Z,12.60
2019-04-21T00:50:05.090Z,12.60
2019-04-21T00:52:52.568Z,12.70
2019-04-21T00:55:21.872Z,12.60
2019-04-21T00:57:45.320Z,12.50
2019-04-21T01:00:15.825Z,12.50
2019-04-21T01:02:45.072Z,12.40
2019-04-21T01:05:16.541Z,12.20
2019-04-21T01:07:42.238Z,12.10
2019-04-21T01:10:05.233Z,12.10
2019-04-21T01:12:43.445Z,12.10
2019-04-21T01:15:18.460Z,12.20
2019-04-21T01:17:46.066Z,12.10
2019-04-21T01:20:10.445Z,12.10
2019-04-21T01:22:25.462Z,12.00
2019-04-21T01:25:04.353Z,12.00
2019-04-21T01:27:46.240Z,12.10
2019-04-21T01:30:16.347Z,12.20
2019-04-21T01:32:51.186Z,12.20
2019-04-21T01:35:15.047Z,12.20
2019-04-21T01:37:50.837Z,12.30
2019-04-21T01:40:22.873Z,12.30
2019-04-21T01:42:48.061Z,12.30
2019-04-21T01:45:18.896Z,12.30
2019-04-21T01:47:47.793Z,12.20
2019-04-21T01:50:09.919Z,12.10
2019-04-21T01:52:55.873Z,12.00
2019-04-21T01:55:25.162Z,12.10
2019-04-21T01:57:49.590Z,12.10
2019-04-21T02:00:21.978Z,12.10
2019-04-21T02:02:59.547Z,12.00
2019-04-21T02:05:31.293Z,11.90
2019-04-21T02:07:56.506Z,11.90
2019-04-21T02:10:35.279Z,11.80
2019-04-21T02:12:56.571Z,11.80
2019-04-21T02:15:34.874Z,11.90
2019-04-21T02:18:04.638Z,12.00
2019-04-21T02:20:21.811Z,12.00
2019-04-21T02:23:17.830Z,12.00
2019-04-21T02:25:33.552Z,11.90
2019-04-21T02:28:03.325Z,11.80
2019-04-21T02:30:50.388Z,11.70
2019-04-21T02:33:18.556Z,11.70
2019-04-21T02:35:50.874Z,11.80
2019-04-21T02:43:20.595Z,11.80
2019-04-21T02:50:47.191Z,11.90
2019-04-21T02:53:22.656Z,11.80
2019-04-21T02:55:43.623Z,11.80
2019-04-21T02:58:25.545Z,11.80
2019-04-21T03:01:14.501Z,11.80
2019-04-21T03:03:50.762Z,11.80
2019-04-21T03:06:27.070Z,11.80
2019-04-21T03:08:57.049Z,11.80
2019-04-21T03:11:14.490Z,11.70
2019-04-21T03:13:54.108Z,11.70
2019-04-21T03:16:25.879Z,11.70
2019-04-21T03:21:16.485Z,11.60
2019-04-21T03:28:52.691Z,11.50
2019-04-21T03:31:41.157Z,11.50
2019-04-21T03:34:29.471Z,11.50
2019-04-21T03:36:41.054Z,11.50
2019-04-21T03:38:51.087Z,11.50
2019-04-21T03:41:22.188Z,11.60
2019-04-21T03:43:50.641Z,11.60
2019-04-21T03:46:26.583Z,11.60
2019-04-21T03:48:53.995Z,11.50
2019-04-21T03:51:20.243Z,11.50
2019-04-21T03:53:46.466Z,11.50
2019-04-21T03:56:42.419Z,11.50
2019-04-21T03:58:58.142Z,11.50
2019-04-21T04:01:44.845Z,11.50
2019-04-21T04:04:27.808Z,11.50
2019-04-21T04:07:25.222Z,11.50
2019-04-21T04:12:03.649Z,11.60
2019-04-21T04:14:44.175Z,11.60
2019-04-21T04:17:11.886Z,11.70
2019-04-21T04:19:34.402Z,11.60
2019-04-21T04:22:04.000Z,11.60
2019-04-21T04:25:01.479Z,11.50
2019-04-21T04:27:20.807Z,11.50
2019-04-21T04:29:44.566Z,11.50
2019-04-21T04:32:10.100Z,11.40
2019-04-21T04:37:26.337Z,11.40
2019-04-21T04:40:02.917Z,11.40
2019-04-21T04:42:31.640Z,11.40
2019-04-21T04:47:22.892Z,11.40
2019-04-21T04:54:59.450Z,11.50
2019-04-21T05:00:01.806Z,11.40
2019-04-21T05:02:33.748Z,11.40
2019-04-21T05:05:17.219Z,11.30
2019-04-21T05:12:22.703Z,11.30
2019-04-21T05:17:28.702Z,11.30
2019-04-21T05:22:22.152Z,11.30
2019-04-21T05:24:44.496Z,11.30
2019-04-21T05:27:33.679Z,11.30
2019-04-21T05:30:17.332Z,11.30
2019-04-21T05:32:48.743Z,11.30
2019-04-21T05:35:16.953Z,11.30
2019-04-21T05:37:50.442Z,11.40
2019-04-21T05:40:15.793Z,11.50
2019-04-21T05:42:45.857Z,11.50
2019-04-21T05:45:22.833Z,11.60
2019-04-21T05:50:23.935Z,11.70
2019-04-21T05:52:44.704Z,11.60
2019-04-21T05:55:34.606Z,11.60
2019-04-21T05:57:57.243Z,11.60
2019-04-21T06:00:46.622Z,11.60
2019-04-21T06:03:04.262Z,11.70
2019-04-21T06:05:39.092Z,11.80
2019-04-21T06:08:00.465Z,11.80
2019-04-21T06:10:34.653Z,11.80
2019-04-21T06:13:05.811Z,11.90
2019-04-21T06:15:39.537Z,11.90
2019-04-21T06:18:04.562Z,12.00
2019-04-21T06:20:33.474Z,12.10
2019-04-21T06:23:02.984Z,12.10
2019-04-21T06:25:48.702Z,12.20
2019-04-21T06:28:10.814Z,12.30
2019-04-21T06:30:46.988Z,12.30
2019-04-21T06:33:00.018Z,12.40
2019-04-21T06:35:58.808Z,12.50
2019-04-21T06:38:27.931Z,12.60
2019-04-21T06:41:00.389Z,12.70
2019-04-21T06:43:42.129Z,12.70
2019-04-21T06:45:52.694Z,12.80
2019-04-21T06:48:24.577Z,12.90
2019-04-21T06:50:52.597Z,12.90
2019-04-21T06:53:35.992Z,13.00
2019-04-21T06:55:52.052Z,13.10
2019-04-21T06:58:19.699Z,13.20
2019-04-21T07:00:47.639Z,13.20
2019-04-21T07:05:58.973Z,13.20
2019-04-21T07:10:53.315Z,13.20
2019-04-21T07:13:21.970Z,13.30
2019-04-21T07:15:55.872Z,13.30
2019-04-21T07:18:30.037Z,13.40
2019-04-21T07:20:53.262Z,13.50
2019-04-21T07:23:32.243Z,13.60
2019-04-21T07:26:01.011Z,13.70
2019-04-21T07:28:25.310Z,13.70
2019-04-21T07:31:00.109Z,13.80
2019-04-21T07:35:56.907Z,13.90
2019-04-21T07:38:27.457Z,14.00
2019-04-21T07:40:45.768Z,14.10
2019-04-21T07:43:20.465Z,14.10
2019-04-21T07:45:49.657Z,14.20
2019-04-21T07:48:24.691Z,14.30
2019-04-21T07:51:07.542Z,14.30
2019-04-21T07:56:19.912Z,14.70
2019-04-21T07:59:02.202Z,14.80
2019-04-21T08:01:40.086Z,14.90
2019-04-21T08:04:08.485Z,14.90
2019-04-21T08:09:08.865Z,15.10
2019-04-21T08:11:32.760Z,15.20
2019-04-21T08:14:24.356Z,15.40
2019-04-21T08:16:39.660Z,15.50
2019-04-21T08:19:08.548Z,15.60
2019-04-21T08:21:43.332Z,15.70
2019-04-21T08:24:07.748Z,15.80
2019-04-21T08:29:18.895Z,16.10
2019-04-21T08:31:50.267Z,16.20
2019-04-21T08:34:17.841Z,16.20
2019-04-21T08:36:40.412Z,16.30
2019-04-21T08:39:06.506Z,16.30
2019-04-21T08:41:39.470Z,16.30
2019-04-21T08:44:09.312Z,16.30
2019-04-21T08:46:42.597Z,16.40
2019-04-21T08:49:10.922Z,16.50
2019-04-21T08:51:51.978Z,16.50
2019-04-21T08:54:15.070Z,16.50
2019-04-21T08:56:46.798Z,16.50
2019-04-21T08:59:26.801Z,16.60
2019-04-21T09:01:53.208Z,16.60
2019-04-21T09:04:39.266Z,16.60
2019-04-21T09:07:04.928Z,16.70
2019-04-21T09:09:29.224Z,16.70
2019-04-21T09:12:01.701Z,16.80
2019-04-21T09:14:31.702Z,16.80
2019-04-21T09:16:56.335Z,16.80
2019-04-21T09:19:39.765Z,16.90
2019-04-21T09:22:02.169Z,17.00
2019-04-21T09:24:28.058Z,17.00
2019-04-21T09:26:58.042Z,17.10
2019-04-21T09:29:23.423Z,17.10
2019-04-21T09:31:46.014Z,17.10
2019-04-21T09:34:20.659Z,17.20
2019-04-21T09:36:48.067Z,17.30
2019-04-21T09:39:18.340Z,17.20
2019-04-21T09:41:44.792Z,17.20
2019-04-21T09:44:20.657Z,17.10
2019-04-21T09:46:50.710Z,16.90
2019-04-21T09:49:18.754Z,16.90
2019-04-21T09:51:44.459Z,16.80
2019-04-21T09:54:20.684Z,16.80
2019-04-21T09:56:52.355Z,16.80
2019-04-21T09:59:20.697Z,16.90
2019-04-21T10:01:54.978Z,16.90
2019-04-21T10:04:14.447Z,17.00
2019-04-21T10:06:43.206Z,17.00
2019-04-21T10:09:16.055Z,17.10
2019-04-21T10:11:41.956Z,17.20
2019-04-21T10:14:11.639Z,17.20
2019-04-21T10:16:54.401Z,17.30
2019-04-21T10:19:25.481Z,17.30
2019-04-21T10:21:54.401Z,17.20
2019-04-21T10:24:24.378Z,17.10
2019-04-21T10:26:53.498Z,17.10
2019-04-21T10:29:25.923Z,17.10
2019-04-21T10:31:52.599Z,17.10
2019-04-21T10:34:21.478Z,17.00
2019-04-21T10:36:50.867Z,16.80
2019-04-21T10:39:19.914Z,16.70
2019-04-21T10:41:48.501Z,16.60
2019-04-21T10:44:17.101Z,16.60
2019-04-21T10:46:48.666Z,16.70
2019-04-21T10:49:17.089Z,17.00
2019-04-21T10:51:46.737Z,17.30
2019-04-21T10:54:15.880Z,17.40
2019-04-21T10:56:45.753Z,17.30
2019-04-21T10:59:14.571Z,17.40
2019-04-21T11:01:43.083Z,17.70
2019-04-21T11:04:21.835Z,18.00
2019-04-21T11:06:46.847Z,18.30
2019-04-21T11:09:15.838Z,18.40
2019-04-21T11:11:46.807Z,18.60
2019-04-21T11:14:15.545Z,18.70
2019-04-21T11:16:46.289Z,18.70
2019-04-21T11:19:15.992Z,18.50
2019-04-21T11:21:44.922Z,18.40
2019-04-21T11:24:14.330Z,18.20
2019-04-21T11:26:43.143Z,18.00
2019-04-21T11:29:12.838Z,17.80
2019-04-21T11:31:41.440Z,17.70
2019-04-21T11:34:11.224Z,17.90
2019-04-21T11:36:40.490Z,18.30
2019-04-21T11:39:30.821Z,18.80
2019-04-21T11:41:50.199Z,19.20
2019-04-21T11:44:21.471Z,19.50
2019-04-21T11:46:49.265Z,19.60
2019-04-21T11:49:18.004Z,19.70
2019-04-21T11:51:46.943Z,19.70
2019-04-21T11:54:15.612Z,19.70
2019-04-21T11:56:45.697Z,19.70
2019-04-21T11:59:15.404Z,19.50
2019-04-21T12:01:45.554Z,19.30
2019-04-21T12:04:16.092Z,19.10
2019-04-21T12:06:47.655Z,18.90
2019-04-21T12:09:15.291Z,18.90
2019-04-21T12:11:45.216Z,18.90
2019-04-21T12:14:14.435Z,18.90
2019-04-21T12:16:43.311Z,18.90
2019-04-21T12:19:12.557Z,18.90
2019-04-21T12:21:54.145Z,19.00
2019-04-21T12:24:11.328Z,19.10
2019-04-21T12:26:40.199Z,19.00
2019-04-21T12:29:09.973Z,18.90
2019-04-21T12:31:57.221Z,18.80
2019-04-21T12:34:26.000Z,18.80
2019-04-21T12:36:55.006Z,18.80
2019-04-21T12:39:24.971Z,18.80
2019-04-21T12:41:54.290Z,18.90
2019-04-21T12:44:22.938Z,18.90
2019-04-21T12:46:51.954Z,19.10
2019-04-21T12:49:21.821Z,19.40
2019-04-21T12:51:51.543Z,19.70
2019-04-21T12:54:21.591Z,19.90
2019-04-21T12:56:51.600Z,20.10
2019-04-21T12:59:21.178Z,20.30
2019-04-21T13:01:50.791Z,20.50
2019-04-21T13:04:19.732Z,20.50
2019-04-21T13:06:49.758Z,20.40
2019-04-21T13:09:20.424Z,20.20
2019-04-21T13:11:48.883Z,20.10
2019-04-21T13:14:17.834Z,20.00
2019-04-21T13:16:47.809Z,19.90
2019-04-21T13:19:17.534Z,19.90
2019-04-21T13:21:46.240Z,20.00
2019-04-21T13:24:15.829Z,20.10
2019-04-21T13:26:50.883Z,20.20
2019-04-21T13:29:16.352Z,20.40
2019-04-21T13:31:45.075Z,20.60
2019-04-21T13:34:13.921Z,20.70
2019-04-21T13:36:43.634Z,20.70
2019-04-21T13:39:50.391Z,20.70
2019-04-21T13:42:16.487Z,20.60
2019-04-21T13:44:37.102Z,20.30
2019-04-21T13:47:06.954Z,20.20
2019-04-21T13:49:37.030Z,20.30
2019-04-21T13:52:06.723Z,20.30
2019-04-21T13:54:35.667Z,20.20
2019-04-21T13:57:04.895Z,20.10
2019-04-21T13:59:34.282Z,19.90
2019-04-21T14:02:04.647Z,19.80
2019-04-21T14:04:33.697Z,19.90
2019-04-21T14:07:02.528Z,20.30
2019-04-21T14:09:40.255Z,20.50
2019-04-21T14:12:01.526Z,20.70
2019-04-21T14:14:30.365Z,20.70
2019-04-21T14:17:00.530Z,20.60
2019-04-21T14:19:30.996Z,20.60
2019-04-21T14:22:01.103Z,20.60
2019-04-21T14:24:30.910Z,20.70
2019-04-21T14:27:00.551Z,20.70
2019-04-21T14:29:29.194Z,20.80
2019-04-21T14:31:58.096Z,21.00
2019-04-21T14:34:28.036Z,21.00
2019-04-21T14:36:56.911Z,21.10
2019-04-21T14:39:30.293Z,20.70
2019-04-21T14:42:00.050Z,20.50
2019-04-21T14:44:29.215Z,20.10
2019-04-21T14:47:03.088Z,19.80
2019-04-21T14:49:49.504Z,19.80
2019-04-21T14:52:21.117Z,19.80
2019-04-21T14:54:51.457Z,19.60
2019-04-21T14:57:21.232Z,19.50
2019-04-21T14:59:50.983Z,19.50
2019-04-21T15:02:20.297Z,19.40
2019-04-21T15:04:49.267Z,19.40
2019-04-21T15:07:18.968Z,19.40
2019-04-21T15:09:59.663Z,19.40
2019-04-21T15:12:18.289Z,19.30
2019-04-21T15:14:47.667Z,19.20
2019-04-21T15:17:18.944Z,19.00
2019-04-21T15:19:53.989Z,18.90
2019-04-21T15:22:16.768Z,18.90
2019-04-21T15:24:45.272Z,18.90
2019-04-21T15:27:14.702Z,18.90
2019-04-21T15:29:44.623Z,18.90
2019-04-21T15:32:14.862Z,18.80
2019-04-21T15:34:44.394Z,18.80
2019-04-21T15:37:13.699Z,18.70
2019-04-21T15:39:42.498Z,18.70
2019-04-21T15:42:12.515Z,18.70
2019-04-21T15:44:42.788Z,18.60
2019-04-21T15:47:11.388Z,18.60
2019-04-21T15:50:03.022Z,18.60
2019-04-21T15:52:25.774Z,18.50
2019-04-21T15:54:56.883Z,18.50
2019-04-21T15:57:27.983Z,18.60
2019-04-21T16:00:02.674Z,18.60
2019-04-21T16:02:40.397Z,18.70
2019-04-21T16:05:10.845Z,18.60
2019-04-21T16:07:40.343Z,18.50
2019-04-21T16:10:11.643Z,18.50
2019-04-21T16:12:40.200Z,18.50
2019-04-21T16:15:10.437Z,18.50
2019-04-21T16:17:39.479Z,18.50
2019-04-21T16:20:10.171Z,18.60
2019-04-21T16:22:38.937Z,18.60
2019-04-21T16:25:08.659Z,18.60
2019-04-21T16:27:37.303Z,18.50
2019-04-21T16:30:10.018Z,18.40
2019-04-21T16:32:38.549Z,18.30
2019-04-21T16:35:10.674Z,18.20
2019-04-21T16:37:39.427Z,18.20
2019-04-21T16:40:09.529Z,18.20
2019-04-21T16:42:38.480Z,18.20
2019-04-21T16:45:10.603Z,18.20
2019-04-21T16:47:40.000Z,18.30
2019-04-21T16:50:09.827Z,18.40
2019-04-21T16:52:40.335Z,18.30
2019-04-21T16:55:12.853Z,18.30
2019-04-21T16:58:03.081Z,18.20
2019-04-21T17:00:31.746Z,18.20
2019-04-21T17:02:54.705Z,18.10
2019-04-21T17:05:24.524Z,18.20
2019-04-21T17:07:53.261Z,18.20
2019-04-21T17:10:22.494Z,18.20
2019-04-21T17:12:51.422Z,18.10
2019-04-21T17:15:37.668Z,18.00
2019-04-21T17:18:10.139Z,18.00
2019-04-21T17:20:34.133Z,18.00
2019-04-21T17:22:53.550Z,17.90
2019-04-21T17:25:24.941Z,17.80
2019-04-21T17:27:53.245Z,17.70
2019-04-21T17:30:24.176Z,17.50
2019-04-21T17:32:53.732Z,17.40
2019-04-21T17:35:22.964Z,17.30
2019-04-21T17:37:52.055Z,17.30
2019-04-21T17:40:24.206Z,17.30
2019-04-21T17:43:01.506Z,17.20
2019-04-21T17:45:23.724Z,17.10
2019-04-21T17:47:59.310Z,17.10
2019-04-21T17:50:25.489Z,17.00
2019-04-21T17:53:16.183Z,16.90
2019-04-21T17:55:54.194Z,16.90
2019-04-21T17:59:47.645Z,16.80
2019-04-21T18:02:04.674Z,16.80
2019-04-21T18:04:34.784Z,16.60
2019-04-21T18:07:15.528Z,16.60
2019-04-21T18:09:56.202Z,16.50
2019-04-21T18:12:16.945Z,16.40
2019-04-21T18:14:36.760Z,16.30
2019-04-21T18:17:06.560Z,16.20
2019-04-21T18:19:39.385Z,16.20
2019-04-21T18:22:14.738Z,16.20
2019-04-21T18:24:54.465Z,16.10
2019-04-21T18:27:15.718Z,16.00
2019-04-21T18:29:44.530Z,15.90
2019-04-21T18:32:18.514Z,15.70
2019-04-21T18:34:52.357Z,15.70
2019-04-21T18:37:27.141Z,15.60
2019-04-21T18:40:03.797Z,15.60
2019-04-21T18:42:55.520Z,15.50
2019-04-21T18:48:04.879Z,15.40
2019-04-21T18:50:51.077Z,15.40
2019-04-21T18:53:32.033Z,15.40
2019-04-21T18:55:52.880Z,15.30
2019-04-21T18:58:18.116Z,15.20
2019-04-21T19:00:48.616Z,15.10
2019-04-21T19:03:25.267Z,15.10
2019-04-21T19:05:53.178Z,15.10
2019-04-21T19:08:40.568Z,15.00
2019-04-21T19:11:09.535Z,14.80
2019-04-21T19:13:52.677Z,14.70
2019-04-21T19:16:31.279Z,14.60
2019-04-21T19:18:56.935Z,14.60
2019-04-21T19:21:05.663Z,14.50
2019-04-21T19:26:23.344Z,14.60
2019-04-21T19:28:50.121Z,14.50
2019-04-21T19:31:20.143Z,14.60
2019-04-21T19:33:40.388Z,14.60
2019-04-21T19:35:53.438Z,14.60
2019-04-21T19:38:31.624Z,14.60
2019-04-21T19:41:11.427Z,14.60
2019-04-21T19:43:40.915Z,14.60
2019-04-21T19:46:09.745Z,14.50
2019-04-21T19:48:47.516Z,14.50
2019-04-21T19:51:10.440Z,14.40
2019-04-21T19:53:37.096Z,14.40
2019-04-21T19:55:54.154Z,14.30
2019-04-21T19:58:28.878Z,14.30
2019-04-21T20:00:57.276Z,14.30
2019-04-21T20:03:24.385Z,14.30
2019-04-21T20:06:02.179Z,14.20
2019-04-21T20:08:37.507Z,14.20
2019-04-21T20:11:10.707Z,14.10
2019-04-21T20:13:52.731Z,14.10
2019-04-21T20:16:16.196Z,14.00
2019-04-21T20:18:32.577Z,13.90
2019-04-21T20:20:56.149Z,13.70
2019-04-21T20:23:28.676Z,13.70
2019-04-21T20:26:00.739Z,13.80
2019-04-21T20:28:36.968Z,13.80
2019-04-21T20:31:14.621Z,13.80
2019-04-21T20:33:57.987Z,13.80
2019-04-21T20:36:20.114Z,13.80
2019-04-21T20:38:35.327Z,13.80
2019-04-21T20:41:02.010Z,13.80
2019-04-21T20:43:47.168Z,13.80
2019-04-21T20:46:11.833Z,13.70
2019-04-21T20:48:42.183Z,13.80
2019-04-21T20:51:14.582Z,13.70
2019-04-21T20:53:45.204Z,13.60
2019-04-21T20:56:11.194Z,13.50
2019-04-21T20:58:45.291Z,13.50
2019-04-21T21:03:57.839Z,13.60
2019-04-21T21:06:14.409Z,13.50
2019-04-21T21:08:49.938Z,13.40
2019-04-21T21:11:15.135Z,13.30
2019-04-21T21:13:49.125Z,13.30
2019-04-21T21:16:20.151Z,13.30
2019-04-21T21:21:18.379Z,13.10
2019-04-21T21:23:48.020Z,13.00
2019-04-21T21:26:21.939Z,13.00
2019-04-21T21:28:42.954Z,13.00
2019-04-21T21:31:22.691Z,13.00
2019-04-21T21:33:59.223Z,13.00
2019-04-21T21:36:19.248Z,13.00
2019-04-21T21:38:54.592Z,13.10
2019-04-21T21:41:13.866Z,13.10
2019-04-21T21:43:34.535Z,13.10
2019-04-21T21:46:15.308Z,13.10
2019-04-21T21:48:47.481Z,13.00
2019-04-21T21:51:10.653Z,13.00
2019-04-21T21:53:36.242Z,12.90
2019-04-21T21:56:06.790Z,12.90
2019-04-21T21:58:41.502Z,12.90
2019-04-21T22:01:08.723Z,12.80
2019-04-21T22:03:42.744Z,12.80
2019-04-21T22:06:13.603Z,12.70
2019-04-21T22:08:38.679Z,12.70
2019-04-21T22:11:07.204Z,12.80
2019-04-21T22:13:49.046Z,12.80
2019-04-21T22:16:12.251Z,12.80
2019-04-21T22:19:02.720Z,12.70
2019-04-21T22:21:20.369Z,12.70
2019-04-21T22:23:51.336Z,12.70
2019-04-21T22:26:18.991Z,12.70
2019-04-21T22:28:47.703Z,12.70
2019-04-21T22:31:21.167Z,12.70
2019-04-21T22:33:50.355Z,12.70
2019-04-21T22:36:31.396Z,12.70
2019-04-21T22:39:05.143Z,12.60
2019-04-21T22:41:26.651Z,12.60
2019-04-21T22:43:51.756Z,12.50
2019-04-21T22:46:18.522Z,12.60
2019-04-21T22:48:53.140Z,12.50
2019-04-21T22:51:23.494Z,12.50
2019-04-21T22:53:50.777Z,12.50
2019-04-21T22:56:25.634Z,12.50
2019-04-21T22:58:50.009Z,12.40
2019-04-21T23:01:25.207Z,12.30
2019-04-21T23:03:55.333Z,12.30
2019-04-21T23:06:25.027Z,12.30
2019-04-21T23:08:51.218Z,12.30
2019-04-21T23:11:20.209Z,12.30
2019-04-21T23:13:55.610Z,12.20
2019-04-21T23:16:26.165Z,12.20
2019-04-21T23:19:13.099Z,12.20
2019-04-21T23:21:36.462Z,12.20
2019-04-21T23:24:08.741Z,12.20
2019-04-21T23:26:37.587Z,12.10
2019-04-21T23:29:15.488Z,12.10
2019-04-21T23:31:40.693Z,12.00
2019-04-21T23:33:52.651Z,12.00
2019-04-21T23:36:26.231Z,12.00
2019-04-21T23:38:53.718Z,12.00
2019-04-21T23:41:26.061Z,12.00
2019-04-21T23:44:01.359Z,12.00
2019-04-21T23:46:26.753Z,12.10
2019-04-21T23:49:07.539Z,12.10
2019-04-21T23:51:37.061Z,12.10
2019-04-21T23:53:53.564Z,12.00
2019-04-21T23:56:30.061Z,11.90
2019-04-21T23:58:59.029Z,11.90
